Time;durP1;ratioP1;P1;durP2;ratioP2;P2;SDS_P1;SDS_P2;PMS_P1;PMS_P2;Temp;Humidity;BMP_temperature;BMP_pressure;BME280_temperature;BME280_humidity;BME280_pressure;Samples;Min_cycle;Max_cycle;Signal;HPM_P1;HPM_P2
2023/11/20 00:02:10;;;;;;;8.02;4.07;;;-0.40;99.90;;;;;;5028498;28;20045;-62
2023/11/20 00:04:37;;;;;;;6.13;2.85;;;-0.40;99.90;;;;;;5030753;28;20048;-60
2023/11/20 00:07:05;;;;;;;6.20;3.30;;;-0.40;99.90;;;;;;5035411;28;20049;-61
2023/11/20 00:09:33;;;;;;;6.10;3.45;;;-0.50;99.90;;;;;;5031417;28;20128;-58
2023/11/20 00:12:00;;;;;;;4.28;2.92;;;-0.50;99.90;;;;;;5032041;28;20061;-60
2023/11/20 00:14:27;;;;;;;3.80;3.10;;;-0.50;99.90;;;;;;5036411;28;20072;-65
2023/11/20 00:16:54;;;;;;;3.85;3.28;;;-0.60;99.90;;;;;;5037321;28;20442;-58
2023/11/20 00:19:22;;;;;;;5.18;3.72;;;-0.60;99.90;;;;;;5028509;28;20395;-60
2023/11/20 00:21:49;;;;;;;5.38;3.83;;;-0.60;99.90;;;;;;5027271;28;20145;-58
2023/11/20 00:24:18;;;;;;;4.60;3.30;;;-0.60;99.90;;;;;;5031227;28;20045;-63
2023/11/20 00:26:45;;;;;;;6.20;4.20;;;-0.70;99.90;;;;;;5031889;28;20069;-60
2023/11/20 00:29:14;;;;;;;4.55;3.58;;;-0.70;99.90;;;;;;5029980;28;20072;-62
2023/11/20 00:31:41;;;;;;;4.68;2.72;;;-0.70;99.90;;;;;;5027699;28;20051;-60
2023/11/20 00:34:09;;;;;;;4.00;3.13;;;-0.80;99.90;;;;;;5029259;28;20056;-61
2023/11/20 00:36:36;;;;;;;6.28;2.90;;;-0.80;99.90;;;;;;5033668;28;20049;-60
2023/11/20 00:39:03;;;;;;;5.15;4.65;;;-0.90;99.90;;;;;;5033149;28;20045;-60
2023/11/20 00:41:31;;;;;;;4.07;3.20;;;-0.90;99.90;;;;;;5039253;28;20045;-61
2023/11/20 00:43:59;;;;;;;5.10;3.22;;;-0.90;99.90;;;;;;5028562;28;20060;-58
2023/11/20 00:46:26;;;;;;;4.35;2.78;;;-0.90;99.90;;;;;;5027788;28;20080;-59
2023/11/20 00:48:53;;;;;;;5.55;3.55;;;-1.00;99.90;;;;;;5027734;28;20045;-62
2023/11/20 00:51:21;;;;;;;5.85;3.45;;;-1.00;99.90;;;;;;5033692;28;20045;-58
2023/11/20 00:53:49;;;;;;;5.63;3.65;;;-1.00;99.90;;;;;;5030153;28;20056;-60
2023/11/20 00:56:19;;;;;;;5.05;3.53;;;-1.00;99.90;;;;;;5029042;28;20539;-59
2023/11/20 00:58:46;;;;;;;8.98;3.13;;;-1.00;99.90;;;;;;5031834;28;20419;-60
2023/11/20 01:01:13;;;;;;;4.20;3.58;;;-1.00;99.90;;;;;;5031052;28;20042;-60
2023/11/20 01:03:40;;;;;;;5.75;4.32;;;-1.00;99.90;;;;;;5027667;28;20099;-60
2023/11/20 01:06:08;;;;;;;6.15;3.92;;;-1.00;99.90;;;;;;5034496;28;20044;-59
2023/11/20 01:08:36;;;;;;;3.60;2.88;;;-1.10;99.90;;;;;;5016045;28;20053;-59
2023/11/20 01:11:12;;;;;;;4.88;3.72;;;-1.10;99.90;;;;;;5027958;28;20123;-59
2023/11/20 01:13:39;;;;;;;4.95;3.22;;;-1.10;99.90;;;;;;5034004;28;20044;-59
2023/11/20 01:16:06;;;;;;;6.70;3.90;;;-1.10;99.90;;;;;;5031945;28;20085;-64
2023/11/20 01:18:33;;;;;;;3.70;3.03;;;-1.20;99.90;;;;;;5031159;28;20490;-63
2023/11/20 01:21:01;;;;;;;5.85;3.75;;;-1.20;99.90;;;;;;5032038;28;20422;-58
2023/11/20 01:23:28;;;;;;;5.55;3.65;;;-1.20;99.90;;;;;;5026493;28;20450;-65
2023/11/20 01:25:55;;;;;;;3.28;2.90;;;-1.20;99.90;;;;;;5027673;28;20041;-59
2023/11/20 01:28:22;;;;;;;5.20;3.25;;;-1.20;99.90;;;;;;5027392;28;20053;-62
2023/11/20 01:30:50;;;;;;;2.97;2.65;;;-1.30;99.90;;;;;;5024924;28;20626;-60
2023/11/20 01:33:18;;;;;;;4.25;3.33;;;-1.30;99.90;;;;;;5033340;28;20487;-60
2023/11/20 01:35:47;;;;;;;4.28;2.78;;;-1.30;99.90;;;;;;5028688;28;20037;-63
2023/11/20 01:38:16;;;;;;;4.03;2.75;;;-1.30;99.90;;;;;;5028227;28;20041;-60
2023/11/20 01:40:44;;;;;;;4.90;3.08;;;-1.40;99.90;;;;;;5034757;28;20045;-58
2023/11/20 01:43:11;;;;;;;5.22;3.58;;;-1.40;99.90;;;;;;5033018;28;20072;-59
2023/11/20 01:45:39;;;;;;;6.20;3.72;;;-1.40;99.90;;;;;;5035701;28;20103;-62
2023/11/20 01:48:07;;;;;;;4.50;2.88;;;-1.40;99.90;;;;;;5026641;28;20045;-59
2023/11/20 01:50:35;;;;;;;4.65;3.63;;;-1.40;99.90;;;;;;5026331;28;20152;-63
2023/11/20 01:53:04;;;;;;;5.65;3.35;;;-1.50;99.90;;;;;;5024067;28;20046;-62
2023/11/20 01:55:31;;;;;;;5.70;4.07;;;-1.40;99.90;;;;;;5029666;28;20107;-65
2023/11/20 01:57:59;;;;;;;4.40;2.97;;;-1.50;99.90;;;;;;5022563;28;20140;-59
2023/11/20 02:00:26;;;;;;;4.93;4.22;;;-1.50;99.90;;;;;;5027107;28;20499;-62
2023/11/20 02:02:54;;;;;;;4.47;4.03;;;-1.50;99.90;;;;;;5065908;28;20064;-59
2023/11/20 02:05:21;;;;;;;4.13;3.28;;;-1.50;99.90;;;;;;5029185;28;20051;-65
2023/11/20 02:07:48;;;;;;;5.15;3.95;;;-1.50;99.90;;;;;;5029608;28;20497;-68
2023/11/20 02:10:17;;;;;;;5.38;3.80;;;-1.50;99.90;;;;;;5028308;28;20069;-66
2023/11/20 02:12:44;;;;;;;3.83;2.97;;;-1.50;99.90;;;;;;5059235;28;20053;-58
2023/11/20 02:15:11;;;;;;;4.40;2.97;;;-1.50;99.90;;;;;;5023997;28;20454;-62
2023/11/20 02:17:38;;;;;;;4.88;3.55;;;-1.60;99.90;;;;;;5024762;28;20495;-62
2023/11/20 02:20:06;;;;;;;3.60;2.40;;;-1.50;99.90;;;;;;5029685;28;20047;-60
2023/11/20 02:22:33;;;;;;;5.72;3.22;;;-1.50;99.90;;;;;;5028910;28;20049;-60
2023/11/20 02:25:00;;;;;;;3.88;2.17;;;-1.40;99.90;;;;;;5030078;28;20315;-60
2023/11/20 02:28:01;;;;;;;3.00;2.63;;;-1.40;99.90;;;;;;5029917;28;20095;-63
2023/11/20 02:30:28;;;;;;;4.07;2.40;;;-1.30;99.90;;;;;;5030098;28;20400;-62
2023/11/20 02:32:55;;;;;;;5.43;2.25;;;-1.30;99.90;;;;;;5030415;28;20088;-59
2023/11/20 02:35:24;;;;;;;3.33;2.40;;;-1.20;99.90;;;;;;5026248;28;20045;-59
2023/11/20 02:37:51;;;;;;;5.43;2.05;;;-1.20;99.90;;;;;;5023987;28;20121;-59
2023/11/20 02:40:18;;;;;;;3.40;2.38;;;-1.20;99.90;;;;;;5025717;28;20049;-60
2023/11/20 02:42:45;;;;;;;2.95;2.47;;;-1.20;99.90;;;;;;5027843;28;20480;-60
2023/11/20 02:45:12;;;;;;;4.93;2.53;;;-1.20;99.90;;;;;;5028828;28;20049;-59
2023/11/20 02:47:40;;;;;;;2.58;2.22;;;-1.20;99.90;;;;;;5027702;28;20041;-59
2023/11/20 02:50:08;;;;;;;2.88;1.70;;;-1.30;99.90;;;;;;5029874;28;20038;-59
2023/11/20 02:52:35;;;;;;;3.83;3.00;;;-1.30;99.90;;;;;;5026871;28;20045;-60
2023/11/20 02:55:02;;;;;;;3.38;2.47;;;-1.30;99.90;;;;;;5025605;28;20049;-61
2023/11/20 02:57:29;;;;;;;4.47;2.40;;;-1.30;99.90;;;;;;5029599;28;20041;-62
2023/11/20 02:59:56;;;;;;;3.42;2.35;;;-1.30;99.90;;;;;;5030793;28;20124;-60
2023/11/20 03:02:22;;;;;;;4.10;2.60;;;-1.40;99.90;;;;;;5028625;28;20041;-60
2023/11/20 03:04:54;;;;;;;3.33;2.55;;;-1.40;99.90;;;;;;5034760;28;20148;-60
2023/11/20 03:07:21;;;;;;;2.45;1.85;;;-1.40;99.90;;;;;;5029137;28;20144;-61
2023/11/20 03:09:48;;;;;;;3.33;2.15;;;-1.40;99.90;;;;;;5026855;28;20069;-61
2023/11/20 03:12:15;;;;;;;3.25;2.45;;;-1.50;99.90;;;;;;5032121;28;20471;-60
2023/11/20 03:14:42;;;;;;;3.03;2.10;;;-1.50;99.90;;;;;;5027723;28;20049;-58
2023/11/20 03:17:09;;;;;;;4.70;3.17;;;-1.50;99.90;;;;;;5034506;28;20049;-60
2023/11/20 03:19:36;;;;;;;2.17;1.98;;;-1.50;99.90;;;;;;5022600;28;20141;-60
2023/11/20 03:22:03;;;;;;;3.33;3.03;;;-1.60;99.90;;;;;;5036367;28;20612;-58
2023/11/20 03:24:30;;;;;;;3.10;2.17;;;-1.60;99.90;;;;;;5025720;28;20280;-61
2023/11/20 03:26:57;;;;;;;4.90;2.55;;;-1.50;99.90;;;;;;5029685;28;20318;-59
2023/11/20 03:29:24;;;;;;;2.65;2.08;;;-1.50;99.90;;;;;;5031226;28;20037;-60
2023/11/20 03:31:51;;;;;;;4.20;2.35;;;-1.50;99.90;;;;;;5033801;28;20053;-62
2023/11/20 03:34:18;;;;;;;3.22;2.40;;;-1.50;99.90;;;;;;5029577;28;20076;-63
2023/11/20 03:36:45;;;;;;;2.25;1.80;;;-1.50;99.90;;;;;;5033521;28;20103;-59
2023/11/20 03:39:12;;;;;;;3.20;2.63;;;-1.40;99.90;;;;;;5032481;28;20046;-61
2023/11/20 03:41:39;;;;;;;3.42;2.47;;;-1.40;99.90;;;;;;5034167;28;20431;-59
2023/11/20 03:44:06;;;;;;;2.65;1.98;;;-1.30;99.90;;;;;;5032147;28;20103;-59
2023/11/20 03:46:33;;;;;;;3.05;1.85;;;-1.30;99.90;;;;;;5030728;28;20040;-59
2023/11/20 03:49:01;;;;;;;4.15;2.67;;;-1.30;99.90;;;;;;5032296;28;20037;-61
2023/11/20 03:51:28;;;;;;;2.85;2.53;;;-1.20;99.90;;;;;;5030297;28;20050;-66
2023/11/20 03:53:55;;;;;;;3.92;3.00;;;-1.20;99.90;;;;;;5035939;28;20046;-59
2023/11/20 03:56:21;;;;;;;4.65;2.92;;;-1.20;99.90;;;;;;5035385;28;20053;-60
2023/11/20 03:58:48;;;;;;;4.65;3.15;;;-1.20;99.90;;;;;;5028336;28;20103;-62
2023/11/20 04:01:15;;;;;;;6.28;3.20;;;-1.10;99.90;;;;;;5031845;28;20419;-59
2023/11/20 04:03:42;;;;;;;5.13;2.92;;;-1.10;99.90;;;;;;5033804;28;20464;-59
2023/11/20 04:06:12;;;;;;;5.85;3.70;;;-1.00;99.90;;;;;;5030404;28;20049;-62
2023/11/20 04:08:40;;;;;;;5.22;3.25;;;-1.00;99.90;;;;;;5034684;28;20041;-60
2023/11/20 04:11:06;;;;;;;5.55;3.60;;;-1.00;99.90;;;;;;5033591;28;20069;-58
2023/11/20 04:13:33;;;;;;;6.63;3.50;;;-0.90;99.90;;;;;;5039362;28;20045;-61
2023/11/20 04:16:01;;;;;;;4.95;4.15;;;-0.90;99.90;;;;;;5032284;28;20045;-64
2023/11/20 04:18:28;;;;;;;6.68;3.70;;;-0.90;99.90;;;;;;5032818;28;20050;-62
2023/11/20 04:20:57;;;;;;;6.35;4.50;;;-0.80;99.90;;;;;;5034303;28;20427;-60
2023/11/20 04:23:24;;;;;;;6.10;4.20;;;-0.80;99.90;;;;;;5031063;28;20162;-62
2023/11/20 04:25:51;;;;;;;7.72;5.03;;;-0.70;99.90;;;;;;5030085;28;20049;-59
2023/11/20 04:28:18;;;;;;;5.50;3.85;;;-0.70;99.90;;;;;;5051976;28;20660;-61
2023/11/20 04:30:45;;;;;;;6.03;4.30;;;-0.70;99.90;;;;;;5028944;28;20107;-60
2023/11/20 04:33:12;;;;;;;6.53;4.15;;;-0.60;99.90;;;;;;5032249;28;20036;-59
2023/11/20 04:35:39;;;;;;;7.45;4.32;;;-0.60;99.90;;;;;;5029365;28;20484;-59
2023/11/20 04:38:06;;;;;;;7.10;4.20;;;-0.60;99.90;;;;;;5031739;28;20080;-60
2023/11/20 04:40:33;;;;;;;7.97;4.78;;;-0.50;99.90;;;;;;5033123;28;20044;-60
2023/11/20 04:43:01;;;;;;;6.10;4.10;;;-0.50;99.90;;;;;;5033811;28;20122;-65
2023/11/20 04:45:28;;;;;;;5.93;3.88;;;-0.40;99.90;;;;;;5024199;28;20053;-59
2023/11/20 04:47:54;;;;;;;7.00;4.50;;;-0.30;99.90;;;;;;5032560;28;20045;-62
2023/11/20 04:50:21;;;;;;;6.30;4.60;;;-0.30;99.90;;;;;;5027754;28;20523;-59
2023/11/20 04:52:48;;;;;;;7.97;4.90;;;-0.30;99.90;;;;;;5033823;28;20050;-64
2023/11/20 04:55:15;;;;;;;6.03;4.32;;;-0.20;99.90;;;;;;5026204;28;20076;-61
2023/11/20 04:57:43;;;;;;;10.60;4.63;;;-0.20;99.90;;;;;;5028948;28;20095;-61
2023/11/20 05:00:12;;;;;;;6.35;4.45;;;-0.10;99.90;;;;;;5021953;28;20361;-59
2023/11/20 05:02:39;;;;;;;5.57;4.05;;;-0.10;99.90;;;;;;5024159;28;20403;-62
2023/11/20 05:05:06;;;;;;;5.65;4.38;;;-0.10;99.90;;;;;;5032519;28;20060;-62
2023/11/20 05:07:36;;;;;;;5.72;4.03;;;0.00;99.90;;;;;;5036985;28;20060;-60
2023/11/20 05:10:05;;;;;;;6.03;4.70;;;0.00;99.90;;;;;;5029682;28;20045;-61
2023/11/20 05:12:33;;;;;;;4.70;3.22;;;0.00;99.90;;;;;;5029014;28;20041;-59
2023/11/20 05:15:00;;;;;;;6.57;3.88;;;0.10;99.90;;;;;;5029758;28;20353;-60
2023/11/20 05:17:28;;;;;;;4.50;3.92;;;0.10;99.90;;;;;;5033234;28;20479;-58
2023/11/20 05:19:55;;;;;;;5.05;4.35;;;0.10;99.90;;;;;;5026417;28;20375;-58
2023/11/20 05:22:22;;;;;;;6.38;4.03;;;0.10;99.90;;;;;;5030361;28;20042;-59
2023/11/20 05:24:49;;;;;;;7.50;5.00;;;0.20;99.90;;;;;;5028855;28;20531;-60
2023/11/20 05:27:16;;;;;;;5.97;4.03;;;0.20;99.90;;;;;;5033730;28;20041;-60
2023/11/20 05:29:44;;;;;;;6.13;4.10;;;0.30;99.90;;;;;;5026803;28;20042;-60
2023/11/20 05:32:11;;;;;;;6.32;5.43;;;0.30;99.90;;;;;;5026095;28;20119;-63
2023/11/20 05:34:38;;;;;;;7.30;5.50;;;0.40;99.90;;;;;;5033412;28;20052;-58
2023/11/20 05:37:05;;;;;;;8.60;4.82;;;0.40;99.90;;;;;;5029403;28;20068;-65
2023/11/20 05:39:33;;;;;;;7.10;5.18;;;0.40;99.90;;;;;;5026605;28;20045;-63
2023/11/20 05:41:59;;;;;;;6.20;5.45;;;0.40;99.90;;;;;;5024587;28;20121;-59
2023/11/20 05:44:26;;;;;;;9.02;5.97;;;0.50;99.90;;;;;;5035353;28;20049;-58
2023/11/20 05:46:53;;;;;;;7.97;5.72;;;0.50;99.90;;;;;;5028820;28;20045;-60
2023/11/20 05:49:20;;;;;;;7.15;4.72;;;0.50;99.90;;;;;;5029271;28;20050;-60
2023/11/20 05:51:47;;;;;;;7.65;5.28;;;0.50;99.90;;;;;;5036803;28;20068;-59
2023/11/20 05:54:14;;;;;;;5.70;4.70;;;0.60;99.90;;;;;;5030317;28;20041;-59
2023/11/20 05:56:41;;;;;;;6.38;5.65;;;0.60;99.90;;;;;;5028032;28;20072;-59
2023/11/20 05:59:10;;;;;;;7.45;5.95;;;0.60;99.90;;;;;;5030772;28;20048;-60
2023/11/20 06:01:39;;;;;;;7.88;4.63;;;0.60;99.90;;;;;;5027771;28;20103;-61
2023/11/20 06:04:08;;;;;;;6.88;5.22;;;0.70;99.90;;;;;;5026164;28;20041;-61
2023/11/20 06:06:36;;;;;;;6.82;5.28;;;0.70;99.90;;;;;;5031507;28;20526;-60
2023/11/20 06:09:05;;;;;;;8.68;5.32;;;0.70;99.90;;;;;;5031799;28;20563;-59
2023/11/20 06:11:32;;;;;;;8.63;5.88;;;0.70;99.90;;;;;;5028412;28;20459;-60
2023/11/20 06:14:01;;;;;;;10.15;6.28;;;0.70;99.90;;;;;;5030271;28;20045;-59
2023/11/20 06:16:29;;;;;;;9.27;6.55;;;0.70;99.90;;;;;;5028594;28;20045;-61
2023/11/20 06:18:56;;;;;;;9.63;6.80;;;0.80;99.90;;;;;;5021960;28;20041;-60
2023/11/20 06:21:23;;;;;;;8.98;6.05;;;0.70;99.90;;;;;;5027277;28;20038;-59
2023/11/20 06:23:51;;;;;;;6.88;5.50;;;0.80;99.90;;;;;;5026486;28;20045;-59
2023/11/20 06:26:18;;;;;;;9.07;5.95;;;0.80;99.90;;;;;;5031009;28;20049;-59
2023/11/20 06:28:45;;;;;;;8.75;5.18;;;0.70;99.90;;;;;;5027351;28;20410;-65
2023/11/20 06:31:12;;;;;;;6.55;4.65;;;0.80;99.90;;;;;;5026693;28;20075;-59
2023/11/20 06:33:39;;;;;;;7.70;5.85;;;0.80;99.90;;;;;;5029473;28;20538;-61
2023/11/20 06:36:07;;;;;;;7.40;5.45;;;0.80;99.90;;;;;;5029964;28;20045;-62
2023/11/20 06:38:35;;;;;;;6.07;5.45;;;0.90;99.90;;;;;;5034382;28;20049;-60
2023/11/20 06:41:03;;;;;;;7.00;5.53;;;0.80;99.90;;;;;;5027496;28;20781;-59
2023/11/20 06:43:30;;;;;;;7.82;5.65;;;0.80;99.90;;;;;;5037465;28;20049;-65
2023/11/20 06:45:59;;;;;;;7.00;5.30;;;0.90;99.90;;;;;;5029523;28;20049;-63
2023/11/20 06:48:28;;;;;;;7.83;5.00;;;0.90;99.90;;;;;;5035056;28;20065;-66
2023/11/20 06:50:55;;;;;;;7.80;5.90;;;0.90;99.90;;;;;;5030806;28;20395;-60
2023/11/20 06:53:22;;;;;;;9.52;6.32;;;0.90;99.90;;;;;;5032945;28;20398;-63
2023/11/20 06:55:49;;;;;;;7.00;5.78;;;0.90;99.90;;;;;;5034180;28;20044;-60
2023/11/20 06:58:16;;;;;;;8.98;6.78;;;1.00;99.90;;;;;;5039656;28;20041;-60
2023/11/20 07:00:43;;;;;;;9.48;7.03;;;1.00;99.90;;;;;;5031121;28;20050;-60
2023/11/20 07:03:10;;;;;;;10.27;6.75;;;1.00;99.90;;;;;;5029496;28;20442;-62
2023/11/20 07:05:38;;;;;;;11.20;7.45;;;1.00;99.90;;;;;;5033280;28;20500;-59
2023/11/20 07:08:08;;;;;;;9.07;6.32;;;1.00;99.90;;;;;;5033342;28;20054;-59
2023/11/20 07:10:36;;;;;;;7.32;5.95;;;1.00;99.90;;;;;;5031754;28;20229;-59
2023/11/20 07:13:03;;;;;;;9.07;6.93;;;1.00;99.90;;;;;;5028439;28;20060;-62
2023/11/20 07:15:32;;;;;;;9.00;6.65;;;1.00;99.90;;;;;;5038834;28;20107;-60
2023/11/20 07:18:00;;;;;;;;;;;1.00;99.90;;;;;;5035471;28;20037;-59
2023/11/20 07:20:27;;;;;;;8.60;6.90;;;1.00;99.90;;;;;;5032471;28;19925;-65
2023/11/20 07:22:55;;;;;;;7.57;6.43;;;1.10;99.90;;;;;;5036107;28;20038;-61
2023/11/20 07:25:25;;;;;;;11.60;7.55;;;1.00;99.90;;;;;;5035092;28;20052;-59
2023/11/20 07:27:52;;;;;;;11.27;7.72;;;1.10;99.90;;;;;;5028358;28;20487;-61
2023/11/20 07:30:20;;;;;;;12.48;8.18;;;1.10;99.90;;;;;;5030108;28;20426;-61
2023/11/20 07:32:47;;;;;;;8.38;7.03;;;1.10;99.90;;;;;;5029066;28;20120;-59
2023/11/20 07:35:15;;;;;;;8.13;6.75;;;1.10;99.90;;;;;;5030752;28;20450;-65
2023/11/20 07:37:42;;;;;;;11.60;9.32;;;1.10;99.90;;;;;;5028836;28;20092;-68
2023/11/20 07:40:11;;;;;;;14.25;7.80;;;1.20;99.90;;;;;;5035430;28;20128;-66
2023/11/20 07:42:40;;;;;;;12.85;8.00;;;1.10;99.90;;;;;;5036296;28;20459;-59
2023/11/20 07:45:08;;;;;;;10.40;6.80;;;1.20;99.90;;;;;;5031416;28;20060;-61
2023/11/20 07:47:35;;;;;;;8.85;7.05;;;1.10;99.90;;;;;;5026414;28;20403;-63
2023/11/20 07:50:02;;;;;;;12.55;8.60;;;1.20;99.90;;;;;;5032061;28;20116;-61
2023/11/20 07:52:31;;;;;;;14.82;7.93;;;1.20;99.90;;;;;;5026952;28;20038;-66
2023/11/20 07:54:58;;;;;;;9.88;7.88;;;1.20;99.90;;;;;;5032664;28;20038;-59
2023/11/20 07:57:25;;;;;;;10.32;8.75;;;1.20;99.90;;;;;;5035287;28;20391;-63
2023/11/20 07:59:52;;;;;;;10.55;8.48;;;1.20;99.90;;;;;;5029781;28;20072;-59
2023/11/20 08:02:19;;;;;;;10.70;8.23;;;1.20;99.90;;;;;;5030781;28;20065;-61
2023/11/20 08:04:47;;;;;;;11.80;8.73;;;1.20;99.90;;;;;;5031657;28;20042;-61
2023/11/20 08:07:14;;;;;;;12.38;9.10;;;1.20;99.90;;;;;;5030706;28;20046;-62
2023/11/20 08:09:41;;;;;;;11.23;7.55;;;1.20;99.90;;;;;;5033152;28;20648;-59
2023/11/20 08:12:08;;;;;;;11.80;7.68;;;1.20;99.90;;;;;;5026789;28;20046;-60
2023/11/20 08:14:35;;;;;;;18.00;7.95;;;1.20;99.90;;;;;;5029804;28;20399;-62
2023/11/20 08:17:03;;;;;;;10.20;8.07;;;1.20;99.90;;;;;;5026845;28;20049;-59
2023/11/20 08:19:30;;;;;;;12.88;9.00;;;1.20;99.90;;;;;;5030123;28;20045;-66
2023/11/20 08:21:57;;;;;;;10.95;8.73;;;1.20;99.90;;;;;;5029071;28;20037;-63
2023/11/20 08:24:24;;;;;;;13.45;10.20;;;1.20;99.90;;;;;;5029769;28;20048;-61
2023/11/20 08:26:50;;;;;;;14.40;9.20;;;1.20;99.90;;;;;;5034289;28;20077;-60
2023/11/20 08:29:19;;;;;;;11.82;9.93;;;1.30;99.90;;;;;;5032411;28;20046;-62
2023/11/20 08:31:49;;;;;;;11.82;9.00;;;1.30;99.90;;;;;;5024605;28;20124;-64
2023/11/20 08:34:16;;;;;;;13.07;9.63;;;1.30;99.90;;;;;;5029509;28;20443;-66
2023/11/20 08:36:46;;;;;;;;;;;1.30;99.90;;;;;;5030959;28;20052;-60
2023/11/20 08:39:18;;;;;;;14.60;9.70;;;1.30;99.90;;;;;;5027406;28;19927;-61
2023/11/20 08:41:45;;;;;;;14.48;9.50;;;1.30;99.90;;;;;;5034716;28;20095;-64
2023/11/20 08:44:12;;;;;;;12.10;8.13;;;1.40;99.90;;;;;;5028239;28;20072;-59
2023/11/20 08:46:39;;;;;;;13.90;9.80;;;1.40;99.90;;;;;;5035558;28;20049;-60
2023/11/20 08:49:08;;;;;;;14.80;10.52;;;1.40;99.90;;;;;;5026005;28;20569;-59
2023/11/20 08:51:35;;;;;;;13.77;9.70;;;1.40;99.90;;;;;;5027248;28;20088;-61
2023/11/20 08:54:02;;;;;;;13.52;9.68;;;1.40;99.90;;;;;;5030285;28;20041;-59
2023/11/20 08:56:29;;;;;;;13.05;9.60;;;1.40;99.90;;;;;;5029443;28;20119;-62
2023/11/20 08:58:56;;;;;;;15.98;10.32;;;1.50;99.90;;;;;;5028444;28;20033;-64
2023/11/20 09:01:36;;;;;;;13.25;10.07;;;1.50;99.90;;;;;;5031885;28;20045;-60
2023/11/20 09:04:03;;;;;;;14.77;10.70;;;1.50;99.90;;;;;;5026019;28;20128;-59
2023/11/20 09:06:31;;;;;;;13.40;11.25;;;1.60;99.90;;;;;;5041084;28;20041;-66
2023/11/20 09:08:58;;;;;;;13.18;9.70;;;1.60;99.90;;;;;;5031842;28;20530;-59
2023/11/20 09:11:27;;;;;;;13.13;9.93;;;1.60;99.90;;;;;;5029167;28;20080;-61
2023/11/20 09:13:54;;;;;;;16.38;12.45;;;1.70;99.90;;;;;;5028524;28;20064;-60
2023/11/20 09:16:20;;;;;;;17.92;12.25;;;1.70;99.90;;;;;;5030630;28;20103;-69
2023/11/20 09:18:48;;;;;;;16.05;10.77;;;1.80;99.90;;;;;;5027688;28;20410;-62
2023/11/20 09:21:15;;;;;;;16.85;11.07;;;1.80;99.90;;;;;;5027723;28;20072;-62
2023/11/20 09:23:45;;;;;;;16.00;11.32;;;1.80;99.90;;;;;;5030192;28;20099;-58
2023/11/20 09:26:12;;;;;;;13.23;9.70;;;1.80;99.90;;;;;;5032743;28;20098;-58
2023/11/20 09:28:40;;;;;;;12.50;9.27;;;1.90;99.90;;;;;;5030807;28;20045;-60
2023/11/20 09:31:07;;;;;;;13.75;10.68;;;1.90;99.90;;;;;;5025648;28;20036;-60
2023/11/20 09:33:35;;;;;;;10.98;9.70;;;1.90;99.90;;;;;;5036987;28;20462;-63
2023/11/20 09:36:03;;;;;;;12.43;9.40;;;2.00;99.90;;;;;;5024944;28;20164;-64
2023/11/20 09:38:30;;;;;;;11.73;9.25;;;2.00;99.90;;;;;;5026806;28;20048;-61
2023/11/20 09:40:58;;;;;;;13.45;9.13;;;2.00;99.90;;;;;;5028668;28;20761;-61
2023/11/20 09:43:31;;;;;;;15.90;10.20;;;2.10;99.90;;;;;;5035002;28;20040;-60
2023/11/20 09:45:59;;;;;;;11.32;8.80;;;2.10;99.90;;;;;;5027212;28;20067;-61
2023/11/20 09:48:32;;;;;;;12.60;10.15;;;2.20;99.90;;;;;;5030851;28;20127;-63
2023/11/20 09:51:00;;;;;;;12.82;9.85;;;2.20;99.90;;;;;;5030901;28;20060;-59
2023/11/20 09:53:39;;;;;;;12.38;8.60;;;2.20;99.90;;;;;;5033149;28;20042;-62
2023/11/20 09:56:06;;;;;;;12.85;9.63;;;2.30;99.90;;;;;;5027148;28;20491;-63
2023/11/20 09:58:34;;;;;;;13.50;9.93;;;2.30;99.90;;;;;;5030978;28;20056;-60
2023/11/20 10:01:12;;;;;;;12.13;8.52;;;2.30;99.90;;;;;;5030931;28;20476;-58
2023/11/20 10:03:40;;;;;;;11.30;8.80;;;2.40;99.90;;;;;;5030429;28;20040;-59
2023/11/20 10:06:10;;;;;;;9.68;7.57;;;2.40;99.90;;;;;;5030090;28;20052;-60
2023/11/20 10:08:40;;;;;;;11.38;8.40;;;2.50;99.90;;;;;;5026892;28;20342;-60
2023/11/20 10:11:11;;;;;;;13.68;8.85;;;2.50;99.90;;;;;;5027520;28;20049;-61
2023/11/20 10:13:39;;;;;;;8.43;7.60;;;2.50;99.90;;;;;;5031594;28;20080;-63
2023/11/20 10:16:12;;;;;;;12.02;8.88;;;2.60;99.90;;;;;;5026486;28;20498;-60
2023/11/20 10:18:42;;;;;;;11.90;8.82;;;2.50;99.90;;;;;;5029459;28;20147;-60
2023/11/20 10:21:12;;;;;;;11.23;9.13;;;2.60;99.90;;;;;;5028150;28;20045;-62
2023/11/20 10:23:40;;;;;;;;;;;2.50;99.90;;;;;;5029327;28;20211;-63
2023/11/20 10:26:08;;;;;;;13.15;8.77;;;2.60;99.90;;;;;;5034232;28;20287;-62
2023/11/20 10:28:41;;;;;;;12.93;7.85;;;2.60;99.90;;;;;;5032038;28;20049;-60
2023/11/20 10:31:08;;;;;;;11.05;8.18;;;2.60;99.90;;;;;;5031662;28;20076;-64
2023/11/20 10:33:36;;;;;;;12.48;8.93;;;2.60;99.90;;;;;;5031386;28;20558;-63
2023/11/20 10:36:16;;;;;;;10.32;8.20;;;2.60;99.90;;;;;;5025071;28;20128;-60
2023/11/20 10:38:44;;;;;;;10.70;7.35;;;2.60;99.90;;;;;;5028875;28;20099;-60
2023/11/20 10:41:12;;;;;;;9.88;7.45;;;2.70;99.90;;;;;;5035895;28;20045;-62
2023/11/20 10:43:40;;;;;;;9.88;7.18;;;2.60;99.90;;;;;;5032719;28;20444;-61
2023/11/20 10:46:08;;;;;;;13.25;8.23;;;2.70;99.90;;;;;;5033563;28;20459;-61
2023/11/20 10:48:37;;;;;;;10.35;8.43;;;2.70;99.90;;;;;;5029791;28;20041;-59
2023/11/20 10:51:08;;;;;;;11.17;8.80;;;2.70;99.90;;;;;;5035971;28;20484;-64
2023/11/20 10:53:39;;;;;;;9.93;8.18;;;2.70;99.90;;;;;;5030889;28;20468;-61
2023/11/20 10:56:08;;;;;;;12.38;8.13;;;2.70;99.90;;;;;;5039086;28;20045;-62
2023/11/20 10:58:35;;;;;;;11.85;8.57;;;2.70;99.90;;;;;;5030828;28;20128;-60
2023/11/20 11:01:02;;;;;;;12.73;8.73;;;2.70;99.90;;;;;;5032994;28;20100;-59
2023/11/20 11:03:30;;;;;;;10.73;7.72;;;2.70;99.90;;;;;;5032106;28;20128;-61
2023/11/20 11:06:04;;;;;;;11.05;7.47;;;2.70;99.90;;;;;;5032823;28;20045;-60
2023/11/20 11:08:32;;;;;;;10.25;8.35;;;2.70;99.90;;;;;;5036857;28;20061;-60
2023/11/20 11:11:03;;;;;;;11.20;9.23;;;2.70;99.90;;;;;;5034051;28;20123;-59
2023/11/20 11:13:33;;;;;;;10.00;8.02;;;2.70;99.90;;;;;;5031920;28;20470;-61
2023/11/20 11:16:03;;;;;;;10.43;9.27;;;2.70;99.90;;;;;;5038273;28;20040;-59
2023/11/20 11:18:33;;;;;;;8.80;7.45;;;2.70;99.90;;;;;;5026325;28;20044;-63
2023/11/20 11:21:08;;;;;;;11.85;8.63;;;2.70;99.90;;;;;;5033070;28;20050;-68
2023/11/20 11:23:49;;;;;;;10.48;7.32;;;2.70;99.90;;;;;;5039983;28;20045;-63
2023/11/20 11:26:22;;;;;;;;;;;2.70;99.90;;;;;;5030250;28;20077;-60
2023/11/20 11:28:54;;;;;;;11.55;8.35;;;2.70;99.90;;;;;;5036668;28;20019;-62
2023/11/20 11:31:25;;;;;;;10.60;8.30;;;2.80;99.90;;;;;;5029552;28;20033;-59
2023/11/20 11:34:06;;;;;;;12.57;9.32;;;2.70;99.90;;;;;;5028318;28;20049;-60
2023/11/20 11:37:18;;;;;;;9.48;7.30;;;2.80;99.90;;;;;;5027474;28;20469;-63
2023/11/20 11:40:09;;;;;;;10.10;8.50;;;2.70;99.90;;;;;;5003826;28;20046;-62
2023/11/20 11:43:17;;;;;;;8.52;6.95;;;2.80;99.90;;;;;;5032534;28;20045;-61
2023/11/20 11:45:48;;;;;;;9.10;7.95;;;2.80;99.90;;;;;;5024537;28;20135;-61
2023/11/20 11:48:16;;;;;;;11.40;8.68;;;2.80;99.90;;;;;;5037841;28;20051;-59
2023/11/20 11:50:44;;;;;;;13.82;9.35;;;2.80;99.90;;;;;;5031357;28;20049;-63
2023/11/20 11:53:11;;;;;;;11.02;9.18;;;2.80;99.90;;;;;;5028981;28;20115;-61
2023/11/20 11:55:42;;;;;;;11.88;8.30;;;2.80;99.90;;;;;;5035432;28;20053;-61
2023/11/20 11:58:13;;;;;;;11.02;8.32;;;2.80;99.90;;;;;;5031699;28;20572;-62
2023/11/20 12:00:41;;;;;;;11.20;8.68;;;2.90;99.90;;;;;;5028610;28;20132;-62
2023/11/20 12:03:08;;;;;;;9.43;7.55;;;2.90;99.90;;;;;;5023366;28;20195;-60
2023/11/20 12:05:55;;;;;;;10.23;7.80;;;2.90;99.90;;;;;;5028989;28;20126;-61
2023/11/20 12:08:22;;;;;;;8.63;7.07;;;2.90;99.90;;;;;;5034919;28;20053;-61
2023/11/20 12:10:51;;;;;;;13.00;8.43;;;2.90;99.90;;;;;;5031878;28;20076;-61
2023/11/20 12:13:23;;;;;;;15.95;7.97;;;2.90;99.90;;;;;;5039414;28;20065;-61
2023/11/20 12:15:59;;;;;;;12.07;7.70;;;2.90;99.90;;;;;;5028942;28;20043;-71
2023/11/20 12:18:32;;;;;;;10.65;7.70;;;2.90;99.90;;;;;;5028762;28;20103;-59
2023/11/20 12:21:04;;;;;;;12.02;8.32;;;2.90;99.90;;;;;;5026485;28;20076;-61
2023/11/20 12:23:44;;;;;;;10.75;9.45;;;2.90;99.90;;;;;;5032544;28;20056;-67
2023/11/20 12:26:17;;;;;;;11.93;9.10;;;2.90;99.90;;;;;;5025722;28;20044;-62
2023/11/20 12:28:45;;;;;;;9.18;7.68;;;2.90;99.90;;;;;;5032870;28;20056;-68
2023/11/20 12:31:13;;;;;;;10.05;7.45;;;2.90;99.90;;;;;;5028609;28;20056;-62
2023/11/20 12:33:46;;;;;;;9.00;7.45;;;2.90;99.90;;;;;;5031943;28;20045;-62
2023/11/20 12:36:14;;;;;;;9.27;6.97;;;2.90;99.90;;;;;;5027736;28;20049;-61
2023/11/20 12:38:45;;;;;;;9.77;7.68;;;2.90;99.90;;;;;;5029205;28;20041;-61
2023/11/20 12:41:12;;;;;;;9.18;7.22;;;2.90;99.90;;;;;;5032753;28;20603;-59
2023/11/20 12:43:39;;;;;;;10.82;7.53;;;2.90;99.90;;;;;;5028239;28;20423;-66
2023/11/20 12:46:06;;;;;;;8.75;6.28;;;2.90;99.90;;;;;;5026473;28;20057;-59
2023/11/20 12:48:39;;;;;;;10.88;8.63;;;2.90;99.90;;;;;;5028106;28;20072;-61
2023/11/20 12:51:06;;;;;;;9.52;7.10;;;2.90;99.90;;;;;;5033600;28;20049;-59
2023/11/20 12:53:37;;;;;;;10.55;7.45;;;2.90;99.90;;;;;;5034679;28;20045;-61
2023/11/20 12:56:05;;;;;;;10.18;8.13;;;2.90;99.90;;;;;;5031389;28;20077;-61
2023/11/20 12:58:32;;;;;;;10.98;7.95;;;2.90;99.90;;;;;;5030978;28;20084;-64